PWSweather.com
Personal Weather Stations
Station Observations
HESKRFRR38
Schwerin, Germany, Klein RogahnDE 19073

Schwerin, GermanyKlein RogahnDE 19073

Lat: 53.6059537, Lon: 11.3412162

Elevation: 167.3226

Station Type: VantagePro2

wetter.hes61.de

High Low Average
Temperature 72.0°F22.2°C 39.9°F4.4°C 56.0°F13.3°C
Dew Point 46.6°F8.1°C 34.0°F1.1°C 39.2°F4.0°C
Winds 12.0 mph 19.3 kmh Calm Calm 4.0 mph ENE6.4 kmh ENE
Wind Gusts 20.0 mph32.2 kmh -- 9.0 mph14.5 kmh
Humidity 83% 29% 57%
Pressure 30.50 in1032.8 mb 30.43 in1030.5 mb -
Precipitation 0.00 in0.0 mm - -
Hour Temp Dew Point Humidity Winds Wind Gusts Pressure Precip Precip Rate Daily Precip Total
12:00 AM 48.3°F9.1°C 38.2°F3.4°C 68% 3.0 mph ENE4.8 kmh ENE 9.0 mph14.5 kmh 30.45 in1031.2 mb 0.00 in0.0 mm 0.00 in0.0 mm 0.00 in0.0 mm
12:05 AM 48.0°F8.9°C 38.0°F3.3°C 68% 3.0 mph NE4.8 kmh NE 9.0 mph14.5 kmh 30.45 in1031.2 mb 0.00 in0.0 mm 0.00 in0.0 mm 0.00 in0.0 mm
12:10 AM 47.9°F8.8°C 37.9°F3.3°C 68% 3.0 mph ENE4.8 kmh ENE 8.0 mph12.9 kmh 30.45 in1031.2 mb 0.00 in0.0 mm 0.00 in0.0 mm 0.00 in0.0 mm
12:15 AM 47.7°F8.7°C 38.0°F3.3°C 69% 3.0 mph ENE4.8 kmh ENE 9.0 mph14.5 kmh 30.45 in1031.2 mb 0.00 in0.0 mm 0.00 in0.0 mm 0.00 in0.0 mm
12:20 AM 47.6°F8.7°C 37.9°F3.3°C 69% 3.0 mph ENE4.8 kmh ENE 7.0 mph11.3 kmh 30.45 in1031.2 mb 0.00 in0.0 mm 0.00 in0.0 mm 0.00 in0.0 mm
12:25 AM 47.5°F8.6°C 37.8°F3.2°C 69% 3.0 mph NE4.8 kmh NE 8.0 mph12.9 kmh 30.45 in1031.2 mb 0.00 in0.0 mm 0.00 in0.0 mm 0.00 in0.0 mm
12:30 AM 47.3°F8.5°C 37.7°F3.2°C 69% 2.0 mph NE3.2 kmh NE 8.0 mph12.9 kmh 30.45 in1031.2 mb 0.00 in0.0 mm 0.00 in0.0 mm 0.00 in0.0 mm
12:35 AM 47.3°F8.5°C 37.7°F3.2°C 69% 2.0 mph NE3.2 kmh NE 10.0 mph16.1 kmh 30.45 in1031.2 mb 0.00 in0.0 mm 0.00 in0.0 mm 0.00 in0.0 mm
12:40 AM 47.1°F8.4°C 37.5°F3.1°C 69% 2.0 mph NE3.2 kmh NE 5.0 mph8.0 kmh 30.45 in1031.2 mb 0.00 in0.0 mm 0.00 in0.0 mm 0.00 in0.0 mm
12:45 AM 46.9°F8.3°C 37.6°F3.1°C 70% 3.0 mph NE4.8 kmh NE 6.0 mph9.7 kmh 30.45 in1031.2 mb 0.00 in0.0 mm 0.00 in0.0 mm 0.00 in0.0 mm
12:50 AM 46.5°F8.1°C 37.6°F3.1°C 71% 2.0 mph ENE3.2 kmh ENE 6.0 mph9.7 kmh 30.45 in1031.2 mb 0.00 in0.0 mm 0.00 in0.0 mm 0.00 in0.0 mm
12:55 AM 46.3°F7.9°C 37.4°F3.0°C 71% 2.0 mph NE3.2 kmh NE 6.0 mph9.7 kmh 30.45 in1031.2 mb 0.00 in0.0 mm 0.00 in0.0 mm 0.00 in0.0 mm
01:00 AM 46.3°F7.9°C 37.4°F3.0°C 71% 2.0 mph NE3.2 kmh NE 5.0 mph8.0 kmh 30.45 in1031.2 mb 0.00 in0.0 mm 0.00 in0.0 mm 0.00 in0.0 mm
01:05 AM 46.2°F7.9°C 37.3°F2.9°C 71% 1.0 mph NE1.6 kmh NE 6.0 mph9.7 kmh 30.45 in1031.2 mb 0.00 in0.0 mm 0.00 in0.0 mm 0.00 in0.0 mm
01:10 AM 46.1°F7.8°C 37.2°F2.9°C 71% 2.0 mph ENE3.2 kmh ENE 6.0 mph9.7 kmh 30.45 in1031.2 mb 0.00 in0.0 mm 0.00 in0.0 mm 0.00 in0.0 mm
01:15 AM 46.0°F7.8°C 37.1°F2.8°C 71% 1.0 mph ENE1.6 kmh ENE 4.0 mph6.4 kmh 30.45 in1031.2 mb 0.00 in0.0 mm 0.00 in0.0 mm 0.00 in0.0 mm
01:20 AM 45.8°F7.7°C 37.3°F2.9°C 72% 2.0 mph NE3.2 kmh NE 8.0 mph12.9 kmh 30.45 in1031.2 mb 0.00 in0.0 mm 0.00 in0.0 mm 0.00 in0.0 mm
01:25 AM 45.8°F7.7°C 37.3°F2.9°C 72% 3.0 mph NE4.8 kmh NE 7.0 mph11.3 kmh 30.45 in1031.2 mb 0.00 in0.0 mm 0.00 in0.0 mm 0.00 in0.0 mm
01:30 AM 45.8°F7.7°C 37.3°F2.9°C 72% 3.0 mph ENE4.8 kmh ENE 9.0 mph14.5 kmh 30.45 in1031.2 mb 0.00 in0.0 mm 0.00 in0.0 mm 0.00 in0.0 mm
01:35 AM 45.7°F7.6°C 37.2°F2.9°C 72% 4.0 mph NE6.4 kmh NE 10.0 mph16.1 kmh 30.45 in1031.2 mb 0.00 in0.0 mm 0.00 in0.0 mm 0.00 in0.0 mm
01:40 AM 45.5°F7.5°C 37.4°F3.0°C 73% 3.0 mph NE4.8 kmh NE 9.0 mph14.5 kmh 30.45 in1031.2 mb 0.00 in0.0 mm 0.00 in0.0 mm 0.00 in0.0 mm
01:45 AM 45.4°F7.4°C 37.3°F2.9°C 73% 3.0 mph NE4.8 kmh NE 8.0 mph12.9 kmh 30.45 in1031.2 mb 0.00 in0.0 mm 0.00 in0.0 mm 0.00 in0.0 mm
01:50 AM 45.3°F7.4°C 37.2°F2.9°C 73% 3.0 mph NE4.8 kmh NE 6.0 mph9.7 kmh 30.45 in1031.2 mb 0.00 in0.0 mm 0.00 in0.0 mm 0.00 in0.0 mm
01:55 AM 45.2°F7.3°C 37.4°F3.0°C 74% 3.0 mph NE4.8 kmh NE 6.0 mph9.7 kmh 30.45 in1031.2 mb 0.00 in0.0 mm 0.00 in0.0 mm 0.00 in0.0 mm
02:00 AM 45.1°F7.3°C 37.3°F2.9°C 74% 2.0 mph NE3.2 kmh NE 6.0 mph9.7 kmh 30.45 in1031.2 mb 0.00 in0.0 mm 0.00 in0.0 mm 0.00 in0.0 mm
02:05 AM 45.0°F7.2°C 37.2°F2.9°C 74% 3.0 mph ENE4.8 kmh ENE 5.0 mph8.0 kmh 30.45 in1031.2 mb 0.00 in0.0 mm 0.00 in0.0 mm 0.00 in0.0 mm
02:10 AM 45.1°F7.3°C 37.3°F2.9°C 74% 3.0 mph ENE4.8 kmh ENE 6.0 mph9.7 kmh 30.45 in1031.2 mb 0.00 in0.0 mm 0.00 in0.0 mm 0.00 in0.0 mm
02:15 AM 44.9°F7.2°C 37.5°F3.1°C 75% 2.0 mph ENE3.2 kmh ENE 9.0 mph14.5 kmh 30.45 in1031.2 mb 0.00 in0.0 mm 0.00 in0.0 mm 0.00 in0.0 mm
02:20 AM 44.9°F7.2°C 37.5°F3.1°C 75% 3.0 mph ENE4.8 kmh ENE 8.0 mph12.9 kmh 30.45 in1031.2 mb 0.00 in0.0 mm 0.00 in0.0 mm 0.00 in0.0 mm
02:25 AM 44.7°F7.1°C 37.3°F2.9°C 75% 2.0 mph ENE3.2 kmh ENE 5.0 mph8.0 kmh 30.45 in1031.2 mb 0.00 in0.0 mm 0.00 in0.0 mm 0.00 in0.0 mm
02:30 AM 44.5°F6.9°C 37.1°F2.8°C 75% 2.0 mph ENE3.2 kmh ENE 7.0 mph11.3 kmh 30.45 in1031.2 mb 0.00 in0.0 mm 0.00 in0.0 mm 0.00 in0.0 mm
02:35 AM 44.4°F6.9°C 37.3°F2.9°C 76% 1.0 mph ENE1.6 kmh ENE 5.0 mph8.0 kmh 30.45 in1031.2 mb 0.00 in0.0 mm 0.00 in0.0 mm 0.00 in0.0 mm
02:40 AM 44.2°F6.8°C 37.1°F2.8°C 76% 2.0 mph NE3.2 kmh NE 6.0 mph9.7 kmh 30.45 in1031.2 mb 0.00 in0.0 mm 0.00 in0.0 mm 0.00 in0.0 mm
02:45 AM 44.1°F6.7°C 37.0°F2.8°C 76% 2.0 mph NE3.2 kmh NE 4.0 mph6.4 kmh 30.45 in1031.2 mb 0.00 in0.0 mm 0.00 in0.0 mm 0.00 in0.0 mm
02:50 AM 44.0°F6.7°C 37.3°F2.9°C 77% 2.0 mph ENE3.2 kmh ENE 6.0 mph9.7 kmh 30.45 in1031.2 mb 0.00 in0.0 mm 0.00 in0.0 mm 0.00 in0.0 mm
02:55 AM 43.9°F6.6°C 37.2°F2.9°C 77% 2.0 mph ENE3.2 kmh ENE 6.0 mph9.7 kmh 30.45 in1031.2 mb 0.00 in0.0 mm 0.00 in0.0 mm 0.00 in0.0 mm
03:00 AM 43.9°F6.6°C 37.2°F2.9°C 77% 2.0 mph ENE3.2 kmh ENE 5.0 mph8.0 kmh 30.45 in1031.2 mb 0.00 in0.0 mm 0.00 in0.0 mm 0.00 in0.0 mm
03:05 AM 43.9°F6.6°C 37.5°F3.1°C 78% 3.0 mph ENE4.8 kmh ENE 6.0 mph9.7 kmh 30.45 in1031.2 mb 0.00 in0.0 mm 0.00 in0.0 mm 0.00 in0.0 mm
03:10 AM 44.0°F6.7°C 37.6°F3.1°C 78% 4.0 mph ENE6.4 kmh ENE 8.0 mph12.9 kmh 30.45 in1031.2 mb 0.00 in0.0 mm 0.00 in0.0 mm 0.00 in0.0 mm
03:15 AM 43.8°F6.6°C 37.4°F3.0°C 78% 3.0 mph ENE4.8 kmh ENE 8.0 mph12.9 kmh 30.45 in1031.2 mb 0.00 in0.0 mm 0.00 in0.0 mm 0.00 in0.0 mm
03:20 AM 43.8°F6.6°C 37.4°F3.0°C 78% 3.0 mph ENE4.8 kmh ENE 7.0 mph11.3 kmh 30.45 in1031.2 mb 0.00 in0.0 mm 0.00 in0.0 mm 0.00 in0.0 mm
03:25 AM 43.8°F6.6°C 37.4°F3.0°C 78% 4.0 mph ENE6.4 kmh ENE 6.0 mph9.7 kmh 30.45 in1031.2 mb 0.00 in0.0 mm 0.00 in0.0 mm 0.00 in0.0 mm
03:30 AM 43.8°F6.6°C 37.4°F3.0°C 78% 4.0 mph ENE6.4 kmh ENE 8.0 mph12.9 kmh 30.45 in1031.2 mb 0.00 in0.0 mm 0.00 in0.0 mm 0.00 in0.0 mm
03:35 AM 43.8°F6.6°C 37.4°F3.0°C 78% 4.0 mph ENE6.4 kmh ENE 9.0 mph14.5 kmh 30.45 in1031.2 mb 0.00 in0.0 mm 0.00 in0.0 mm 0.00 in0.0 mm
03:40 AM 43.7°F6.5°C 37.3°F2.9°C 78% 4.0 mph ENE6.4 kmh ENE 8.0 mph12.9 kmh 30.45 in1031.2 mb 0.00 in0.0 mm 0.00 in0.0 mm 0.00 in0.0 mm
03:45 AM 43.6°F6.4°C 37.5°F3.1°C 79% 4.0 mph ENE6.4 kmh ENE 10.0 mph16.1 kmh 30.45 in1031.2 mb 0.00 in0.0 mm 0.00 in0.0 mm 0.00 in0.0 mm
03:50 AM 43.5°F6.4°C 37.4°F3.0°C 79% 3.0 mph ENE4.8 kmh ENE 6.0 mph9.7 kmh 30.45 in1031.2 mb 0.00 in0.0 mm 0.00 in0.0 mm 0.00 in0.0 mm
03:55 AM 43.4°F6.3°C 37.3°F2.9°C 79% 3.0 mph ENE4.8 kmh ENE 8.0 mph12.9 kmh 30.45 in1031.2 mb 0.00 in0.0 mm 0.00 in0.0 mm 0.00 in0.0 mm
04:00 AM 43.2°F6.2°C 37.5°F3.1°C 80% 3.0 mph ENE4.8 kmh ENE 7.0 mph11.3 kmh 30.45 in1031.2 mb 0.00 in0.0 mm 0.00 in0.0 mm 0.00 in0.0 mm
04:05 AM 43.2°F6.2°C 37.5°F3.1°C 80% 3.0 mph ENE4.8 kmh ENE 5.0 mph8.0 kmh 30.46 in1031.5 mb 0.00 in0.0 mm 0.00 in0.0 mm 0.00 in0.0 mm
04:10 AM 43.1°F6.2°C 37.4°F3.0°C 80% 2.0 mph ENE3.2 kmh ENE 5.0 mph8.0 kmh 30.46 in1031.5 mb 0.00 in0.0 mm 0.00 in0.0 mm 0.00 in0.0 mm
04:15 AM 43.0°F6.1°C 37.3°F2.9°C 80% 2.0 mph ENE3.2 kmh ENE 5.0 mph8.0 kmh 30.45 in1031.2 mb 0.00 in0.0 mm 0.00 in0.0 mm 0.00 in0.0 mm
04:20 AM 43.0°F6.1°C 37.3°F2.9°C 80% 1.0 mph ENE1.6 kmh ENE 4.0 mph6.4 kmh 30.45 in1031.2 mb 0.00 in0.0 mm 0.00 in0.0 mm 0.00 in0.0 mm
04:25 AM 42.7°F5.9°C 37.3°F2.9°C 81% 1.0 mph ENE1.6 kmh ENE 2.0 mph3.2 kmh 30.46 in1031.5 mb 0.00 in0.0 mm 0.00 in0.0 mm 0.00 in0.0 mm
04:30 AM 42.5°F5.8°C 37.1°F2.8°C 81% 1.0 mph ENE1.6 kmh ENE 6.0 mph9.7 kmh 30.46 in1031.5 mb 0.00 in0.0 mm 0.00 in0.0 mm 0.00 in0.0 mm
04:35 AM 42.4°F5.8°C 37.0°F2.8°C 81% 1.0 mph NE1.6 kmh NE 4.0 mph6.4 kmh 30.46 in1031.5 mb 0.00 in0.0 mm 0.00 in0.0 mm 0.00 in0.0 mm
04:40 AM 42.1°F5.6°C 37.0°F2.8°C 82% 1.0 mph NE1.6 kmh NE 5.0 mph8.0 kmh 30.46 in1031.5 mb 0.00 in0.0 mm 0.00 in0.0 mm 0.00 in0.0 mm
04:45 AM 42.1°F5.6°C 37.0°F2.8°C 82% 2.0 mph NE3.2 kmh NE 6.0 mph9.7 kmh 30.46 in1031.5 mb 0.00 in0.0 mm 0.00 in0.0 mm 0.00 in0.0 mm
04:50 AM 42.3°F5.7°C 37.2°F2.9°C 82% 2.0 mph ENE3.2 kmh ENE 6.0 mph9.7 kmh 30.46 in1031.5 mb 0.00 in0.0 mm 0.00 in0.0 mm 0.00 in0.0 mm
04:55 AM 42.1°F5.6°C 37.0°F2.8°C 82% 2.0 mph NE3.2 kmh NE 5.0 mph8.0 kmh 30.46 in1031.5 mb 0.00 in0.0 mm 0.00 in0.0 mm 0.00 in0.0 mm
05:00 AM 41.8°F5.4°C 36.7°F2.6°C 82% 2.0 mph NE3.2 kmh NE 5.0 mph8.0 kmh 30.46 in1031.5 mb 0.00 in0.0 mm 0.00 in0.0 mm 0.00 in0.0 mm
05:05 AM 41.8°F5.4°C 37.0°F2.8°C 83% 1.0 mph ENE1.6 kmh ENE 4.0 mph6.4 kmh 30.46 in1031.5 mb 0.00 in0.0 mm 0.00 in0.0 mm 0.00 in0.0 mm
05:10 AM 41.8°F5.4°C 37.0°F2.8°C 83% 2.0 mph ENE3.2 kmh ENE 5.0 mph8.0 kmh 30.46 in1031.5 mb 0.00 in0.0 mm 0.00 in0.0 mm 0.00 in0.0 mm
05:15 AM 42.0°F5.6°C 37.2°F2.9°C 83% 1.0 mph ENE1.6 kmh ENE 6.0 mph9.7 kmh 30.46 in1031.5 mb 0.00 in0.0 mm 0.00 in0.0 mm 0.00 in0.0 mm
05:20 AM 41.8°F5.4°C 37.0°F2.8°C 83% 1.0 mph ENE1.6 kmh ENE 4.0 mph6.4 kmh 30.46 in1031.5 mb 0.00 in0.0 mm 0.00 in0.0 mm 0.00 in0.0 mm
05:25 AM 41.8°F5.4°C 37.0°F2.8°C 83% 1.0 mph NE1.6 kmh NE 4.0 mph6.4 kmh 30.46 in1031.5 mb 0.00 in0.0 mm 0.00 in0.0 mm 0.00 in0.0 mm
05:30 AM 41.8°F5.4°C 37.0°F2.8°C 83% 2.0 mph NE3.2 kmh NE 4.0 mph6.4 kmh 30.46 in1031.5 mb 0.00 in0.0 mm 0.00 in0.0 mm 0.00 in0.0 mm
05:35 AM 41.8°F5.4°C 37.0°F2.8°C 83% 3.0 mph NE4.8 kmh NE 5.0 mph8.0 kmh 30.46 in1031.5 mb 0.00 in0.0 mm 0.00 in0.0 mm 0.00 in0.0 mm
05:40 AM 41.8°F5.4°C 37.0°F2.8°C 83% 3.0 mph NE4.8 kmh NE 6.0 mph9.7 kmh 30.46 in1031.5 mb 0.00 in0.0 mm 0.00 in0.0 mm 0.00 in0.0 mm
05:45 AM 42.1°F5.6°C 37.3°F2.9°C 83% 2.0 mph ENE3.2 kmh ENE 4.0 mph6.4 kmh 30.46 in1031.5 mb 0.00 in0.0 mm 0.00 in0.0 mm 0.00 in0.0 mm
05:50 AM 42.5°F5.8°C 37.7°F3.2°C 83% 2.0 mph NE3.2 kmh NE 5.0 mph8.0 kmh 30.47 in1031.8 mb 0.00 in0.0 mm 0.00 in0.0 mm 0.00 in0.0 mm
05:55 AM 42.8°F6.0°C 37.7°F3.2°C 82% 2.0 mph ENE3.2 kmh ENE 5.0 mph8.0 kmh 30.47 in1031.8 mb 0.00 in0.0 mm 0.00 in0.0 mm 0.00 in0.0 mm
06:00 AM 43.1°F6.2°C 38.0°F3.3°C 82% 2.0 mph NE3.2 kmh NE 7.0 mph11.3 kmh 30.47 in1031.8 mb 0.00 in0.0 mm 0.00 in0.0 mm 0.00 in0.0 mm
06:05 AM 43.6°F6.4°C 38.2°F3.4°C 81% 3.0 mph ENE4.8 kmh ENE 6.0 mph9.7 kmh 30.47 in1031.8 mb 0.00 in0.0 mm 0.00 in0.0 mm 0.00 in0.0 mm
06:10 AM 44.0°F6.7°C 38.6°F3.7°C 81% 2.0 mph ENE3.2 kmh ENE 5.0 mph8.0 kmh 30.47 in1031.8 mb 0.00 in0.0 mm 0.00 in0.0 mm 0.00 in0.0 mm
06:15 AM 44.3°F6.8°C 38.5°F3.6°C 80% 2.0 mph ENE3.2 kmh ENE 6.0 mph9.7 kmh 30.47 in1031.8 mb 0.00 in0.0 mm 0.00 in0.0 mm 0.00 in0.0 mm
06:20 AM 44.7°F7.1°C 38.9°F3.8°C 80% 3.0 mph ENE4.8 kmh ENE 6.0 mph9.7 kmh 30.47 in1031.8 mb 0.00 in0.0 mm 0.00 in0.0 mm 0.00 in0.0 mm
06:25 AM 45.1°F7.3°C 39.0°F3.9°C 79% 3.0 mph ENE4.8 kmh ENE 7.0 mph11.3 kmh 30.47 in1031.8 mb 0.00 in0.0 mm 0.00 in0.0 mm 0.00 in0.0 mm
06:30 AM 45.4°F7.4°C 39.3°F4.1°C 79% 4.0 mph ENE6.4 kmh ENE 7.0 mph11.3 kmh 30.47 in1031.8 mb 0.00 in0.0 mm 0.00 in0.0 mm 0.00 in0.0 mm
06:35 AM 45.8°F7.7°C 39.3°F4.1°C 78% 2.0 mph ENE3.2 kmh ENE 6.0 mph9.7 kmh 30.48 in1032.2 mb 0.00 in0.0 mm 0.00 in0.0 mm 0.00 in0.0 mm
06:40 AM 46.1°F7.8°C 39.6°F4.2°C 78% 2.0 mph ENE3.2 kmh ENE 5.0 mph8.0 kmh 30.47 in1031.8 mb 0.00 in0.0 mm 0.00 in0.0 mm 0.00 in0.0 mm
06:45 AM 46.4°F8.0°C 39.6°F4.2°C 77% 2.0 mph ENE3.2 kmh ENE 6.0 mph9.7 kmh 30.48 in1032.2 mb 0.00 in0.0 mm 0.00 in0.0 mm 0.00 in0.0 mm
06:50 AM 46.8°F8.2°C 40.0°F4.4°C 77% 3.0 mph ENE4.8 kmh ENE 5.0 mph8.0 kmh 30.48 in1032.2 mb 0.00 in0.0 mm 0.00 in0.0 mm 0.00 in0.0 mm
06:55 AM 47.1°F8.4°C 39.9°F4.4°C 76% 3.0 mph ENE4.8 kmh ENE 7.0 mph11.3 kmh 30.48 in1032.2 mb 0.00 in0.0 mm 0.00 in0.0 mm 0.00 in0.0 mm
07:00 AM 47.4°F8.6°C 39.9°F4.4°C 75% 4.0 mph ENE6.4 kmh ENE 9.0 mph14.5 kmh 30.48 in1032.2 mb 0.00 in0.0 mm 0.00 in0.0 mm 0.00 in0.0 mm
07:05 AM 47.7°F8.7°C 40.2°F4.6°C 75% 4.0 mph ENE6.4 kmh ENE 8.0 mph12.9 kmh 30.48 in1032.2 mb 0.00 in0.0 mm 0.00 in0.0 mm 0.00 in0.0 mm
07:10 AM 48.2°F9.0°C 40.3°F4.6°C 74% 4.0 mph ENE6.4 kmh ENE 7.0 mph11.3 kmh 30.48 in1032.2 mb 0.00 in0.0 mm 0.00 in0.0 mm 0.00 in0.0 mm
07:15 AM 48.7°F9.3°C 40.4°F4.7°C 73% 3.0 mph ENE4.8 kmh ENE 8.0 mph12.9 kmh 30.48 in1032.2 mb 0.00 in0.0 mm 0.00 in0.0 mm 0.00 in0.0 mm
07:20 AM 49.2°F9.6°C 40.6°F4.8°C 72% 3.0 mph ENE4.8 kmh ENE 6.0 mph9.7 kmh 30.48 in1032.2 mb 0.00 in0.0 mm 0.00 in0.0 mm 0.00 in0.0 mm
07:25 AM 49.4°F9.7°C 40.0°F4.4°C 70% 5.0 mph ENE8.0 kmh ENE 8.0 mph12.9 kmh 30.48 in1032.2 mb 0.00 in0.0 mm 0.00 in0.0 mm 0.00 in0.0 mm
07:30 AM 49.6°F9.8°C 40.2°F4.6°C 70% 4.0 mph ENE6.4 kmh ENE 8.0 mph12.9 kmh 30.48 in1032.2 mb 0.00 in0.0 mm 0.00 in0.0 mm 0.00 in0.0 mm
07:35 AM 49.9°F9.9°C 40.9°F4.9°C 71% 4.0 mph ENE6.4 kmh ENE 9.0 mph14.5 kmh 30.48 in1032.2 mb 0.00 in0.0 mm 0.00 in0.0 mm 0.00 in0.0 mm
07:40 AM 50.3°F10.2°C 40.9°F4.9°C 70% 4.0 mph ENE6.4 kmh ENE 9.0 mph14.5 kmh 30.48 in1032.2 mb 0.00 in0.0 mm 0.00 in0.0 mm 0.00 in0.0 mm
07:45 AM 50.6°F10.3°C 40.8°F4.9°C 69% 4.0 mph ENE6.4 kmh ENE 8.0 mph12.9 kmh 30.48 in1032.2 mb 0.00 in0.0 mm 0.00 in0.0 mm 0.00 in0.0 mm
07:50 AM 51.0°F10.6°C 40.8°F4.9°C 68% 3.0 mph ENE4.8 kmh ENE 8.0 mph12.9 kmh 30.48 in1032.2 mb 0.00 in0.0 mm 0.00 in0.0 mm 0.00 in0.0 mm
07:55 AM 51.4°F10.8°C 41.2°F5.1°C 68% 5.0 mph ENE8.0 kmh ENE 9.0 mph14.5 kmh 30.48 in1032.2 mb 0.00 in0.0 mm 0.00 in0.0 mm 0.00 in0.0 mm
08:00 AM 51.9°F11.1°C 41.7°F5.4°C 68% 3.0 mph ENE4.8 kmh ENE 8.0 mph12.9 kmh 30.49 in1032.5 mb 0.00 in0.0 mm 0.00 in0.0 mm 0.00 in0.0 mm
08:05 AM 52.2°F11.2°C 41.2°F5.1°C 66% 3.0 mph ENE4.8 kmh ENE 8.0 mph12.9 kmh 30.49 in1032.5 mb 0.00 in0.0 mm 0.00 in0.0 mm 0.00 in0.0 mm
08:10 AM 52.8°F11.6°C 41.8°F5.4°C 66% 3.0 mph ENE4.8 kmh ENE 8.0 mph12.9 kmh 30.49 in1032.5 mb 0.00 in0.0 mm 0.00 in0.0 mm 0.00 in0.0 mm
08:15 AM 52.9°F11.6°C 41.5°F5.3°C 65% 3.0 mph NE4.8 kmh NE 7.0 mph11.3 kmh 30.49 in1032.5 mb 0.00 in0.0 mm 0.00 in0.0 mm 0.00 in0.0 mm
08:20 AM 53.4°F11.9°C 41.9°F5.5°C 65% 4.0 mph ENE6.4 kmh ENE 8.0 mph12.9 kmh 30.49 in1032.5 mb 0.00 in0.0 mm 0.00 in0.0 mm 0.00 in0.0 mm
08:25 AM 53.5°F11.9°C 41.2°F5.1°C 63% 4.0 mph ENE6.4 kmh ENE 9.0 mph14.5 kmh 30.49 in1032.5 mb 0.00 in0.0 mm 0.00 in0.0 mm 0.00 in0.0 mm
08:30 AM 53.8°F12.1°C 41.9°F5.5°C 64% 3.0 mph ENE4.8 kmh ENE 6.0 mph9.7 kmh 30.49 in1032.5 mb 0.00 in0.0 mm 0.00 in0.0 mm 0.00 in0.0 mm
08:35 AM 54.7°F12.6°C 41.9°F5.5°C 62% 3.0 mph ENE4.8 kmh ENE 6.0 mph9.7 kmh 30.49 in1032.5 mb 0.00 in0.0 mm 0.00 in0.0 mm 0.00 in0.0 mm
08:40 AM 55.5°F13.1°C 42.7°F5.9°C 62% 3.0 mph ENE4.8 kmh ENE 7.0 mph11.3 kmh 30.49 in1032.5 mb 0.00 in0.0 mm 0.00 in0.0 mm 0.00 in0.0 mm
08:45 AM 55.3°F12.9°C 42.1°F5.6°C 61% 4.0 mph ENE6.4 kmh ENE 8.0 mph12.9 kmh 30.50 in1032.8 mb 0.00 in0.0 mm 0.00 in0.0 mm 0.00 in0.0 mm
08:50 AM 56.2°F13.4°C 42.5°F5.8°C 60% 3.0 mph ENE4.8 kmh ENE 7.0 mph11.3 kmh 30.49 in1032.5 mb 0.00 in0.0 mm 0.00 in0.0 mm 0.00 in0.0 mm
08:55 AM 56.4°F13.6°C 42.3°F5.7°C 59% 4.0 mph ENE6.4 kmh ENE 8.0 mph12.9 kmh 30.50 in1032.8 mb 0.00 in0.0 mm 0.00 in0.0 mm 0.00 in0.0 mm
09:00 AM 56.8°F13.8°C 42.6°F5.9°C 59% 4.0 mph ENE6.4 kmh ENE 8.0 mph12.9 kmh 30.50 in1032.8 mb 0.00 in0.0 mm 0.00 in0.0 mm 0.00 in0.0 mm
09:05 AM 56.5°F13.6°C 41.9°F5.5°C 58% 5.0 mph E8.0 kmh E 8.0 mph12.9 kmh 30.50 in1032.8 mb 0.00 in0.0 mm 0.00 in0.0 mm 0.00 in0.0 mm
09:10 AM 57.4°F14.1°C 42.7°F5.9°C 58% 5.0 mph ENE8.0 kmh ENE 8.0 mph12.9 kmh 30.50 in1032.8 mb 0.00 in0.0 mm 0.00 in0.0 mm 0.00 in0.0 mm
09:15 AM 57.4°F14.1°C 42.3°F5.7°C 57% 4.0 mph E6.4 kmh E 8.0 mph12.9 kmh 30.50 in1032.8 mb 0.00 in0.0 mm 0.00 in0.0 mm 0.00 in0.0 mm
09:20 AM 58.5°F14.7°C 43.3°F6.3°C 57% 4.0 mph ENE6.4 kmh ENE 8.0 mph12.9 kmh 30.50 in1032.8 mb 0.00 in0.0 mm 0.00 in0.0 mm 0.00 in0.0 mm
09:25 AM 58.8°F14.9°C 42.7°F5.9°C 55% 4.0 mph ENE6.4 kmh ENE 8.0 mph12.9 kmh 30.50 in1032.8 mb 0.00 in0.0 mm 0.00 in0.0 mm 0.00 in0.0 mm
09:30 AM 59.1°F15.1°C 42.9°F6.1°C 55% 3.0 mph E4.8 kmh E 6.0 mph9.7 kmh 30.50 in1032.8 mb 0.00 in0.0 mm 0.00 in0.0 mm 0.00 in0.0 mm
09:35 AM 60.0°F15.6°C 43.3°F6.3°C 54% 3.0 mph ENE4.8 kmh ENE 6.0 mph9.7 kmh 30.50 in1032.8 mb 0.00 in0.0 mm 0.00 in0.0 mm 0.00 in0.0 mm
09:40 AM 60.0°F15.6°C 42.8°F6.0°C 53% 2.0 mph E3.2 kmh E 6.0 mph9.7 kmh 30.50 in1032.8 mb 0.00 in0.0 mm 0.00 in0.0 mm 0.00 in0.0 mm
09:45 AM 60.2°F15.7°C 43.5°F6.4°C 54% 3.0 mph ENE4.8 kmh ENE 7.0 mph11.3 kmh 30.50 in1032.8 mb 0.00 in0.0 mm 0.00 in0.0 mm 0.00 in0.0 mm
09:50 AM 60.5°F15.8°C 43.3°F6.3°C 53% 3.0 mph E4.8 kmh E 7.0 mph11.3 kmh 30.50 in1032.8 mb 0.00 in0.0 mm 0.00 in0.0 mm 0.00 in0.0 mm
09:55 AM 61.6°F16.4°C 43.8°F6.6°C 52% 2.0 mph E3.2 kmh E 7.0 mph11.3 kmh 30.50 in1032.8 mb 0.00 in0.0 mm 0.00 in0.0 mm 0.00 in0.0 mm
10:00 AM 63.1°F17.3°C 44.7°F7.1°C 51% 4.0 mph ENE6.4 kmh ENE 9.0 mph14.5 kmh 30.50 in1032.8 mb 0.00 in0.0 mm 0.00 in0.0 mm 0.00 in0.0 mm
10:05 AM 62.6°F17.0°C 43.7°F6.5°C 50% 5.0 mph ENE8.0 kmh ENE 9.0 mph14.5 kmh 30.50 in1032.8 mb 0.00 in0.0 mm 0.00 in0.0 mm 0.00 in0.0 mm
10:10 AM 62.4°F16.9°C 43.5°F6.4°C 50% 5.0 mph ENE8.0 kmh ENE 10.0 mph16.1 kmh 30.50 in1032.8 mb 0.00 in0.0 mm 0.00 in0.0 mm 0.00 in0.0 mm
10:15 AM 62.9°F17.2°C 44.5°F6.9°C 51% 4.0 mph ENE6.4 kmh ENE 8.0 mph12.9 kmh 30.50 in1032.8 mb 0.00 in0.0 mm 0.00 in0.0 mm 0.00 in0.0 mm
10:20 AM 63.2°F17.3°C 44.2°F6.8°C 50% 4.0 mph ENE6.4 kmh ENE 9.0 mph14.5 kmh 30.50 in1032.8 mb 0.00 in0.0 mm 0.00 in0.0 mm 0.00 in0.0 mm
10:25 AM 64.1°F17.8°C 44.5°F6.9°C 49% 6.0 mph ENE9.7 kmh ENE 9.0 mph14.5 kmh 30.50 in1032.8 mb 0.00 in0.0 mm 0.00 in0.0 mm 0.00 in0.0 mm
10:30 AM 63.9°F17.7°C 43.3°F6.3°C 47% 6.0 mph ENE9.7 kmh ENE 10.0 mph16.1 kmh 30.49 in1032.5 mb 0.00 in0.0 mm 0.00 in0.0 mm 0.00 in0.0 mm
10:35 AM 64.7°F18.2°C 42.9°F6.1°C 45% 5.0 mph E8.0 kmh E 9.0 mph14.5 kmh 30.49 in1032.5 mb 0.00 in0.0 mm 0.00 in0.0 mm 0.00 in0.0 mm
10:40 AM 64.8°F18.2°C 45.2°F7.3°C 49% 4.0 mph ENE6.4 kmh ENE 8.0 mph12.9 kmh 30.49 in1032.5 mb 0.00 in0.0 mm 0.00 in0.0 mm 0.00 in0.0 mm
10:45 AM 64.8°F18.2°C 43.5°F6.4°C 46% 5.0 mph E8.0 kmh E 9.0 mph14.5 kmh 30.49 in1032.5 mb 0.00 in0.0 mm 0.00 in0.0 mm 0.00 in0.0 mm
10:50 AM 65.3°F18.5°C 43.4°F6.3°C 45% 3.0 mph E4.8 kmh E 7.0 mph11.3 kmh 30.49 in1032.5 mb 0.00 in0.0 mm 0.00 in0.0 mm 0.00 in0.0 mm
10:55 AM 66.5°F19.2°C 44.5°F6.9°C 45% 3.0 mph E4.8 kmh E 7.0 mph11.3 kmh 30.49 in1032.5 mb 0.00 in0.0 mm 0.00 in0.0 mm 0.00 in0.0 mm
11:00 AM 66.8°F19.3°C 45.9°F7.7°C 47% 4.0 mph E6.4 kmh E 9.0 mph14.5 kmh 30.49 in1032.5 mb 0.00 in0.0 mm 0.00 in0.0 mm 0.00 in0.0 mm
11:05 AM 67.5°F19.7°C 46.6°F8.1°C 47% 3.0 mph E4.8 kmh E 8.0 mph12.9 kmh 30.49 in1032.5 mb 0.00 in0.0 mm 0.00 in0.0 mm 0.00 in0.0 mm
11:10 AM 67.7°F19.8°C 44.4°F6.9°C 43% 5.0 mph ENE8.0 kmh ENE 8.0 mph12.9 kmh 30.49 in1032.5 mb 0.00 in0.0 mm 0.00 in0.0 mm 0.00 in0.0 mm
11:15 AM 68.2°F20.1°C 42.9°F6.1°C 40% 5.0 mph ENE8.0 kmh ENE 10.0 mph16.1 kmh 30.49 in1032.5 mb 0.00 in0.0 mm 0.00 in0.0 mm 0.00 in0.0 mm
11:20 AM 68.4°F20.2°C 43.8°F6.6°C 41% 7.0 mph ENE11.3 kmh ENE 13.0 mph20.9 kmh 30.48 in1032.2 mb 0.00 in0.0 mm 0.00 in0.0 mm 0.00 in0.0 mm
11:25 AM 68.2°F20.1°C 42.3°F5.7°C 39% 7.0 mph ENE11.3 kmh ENE 11.0 mph17.7 kmh 30.48 in1032.2 mb 0.00 in0.0 mm 0.00 in0.0 mm 0.00 in0.0 mm
11:30 AM 69.0°F20.6°C 44.3°F6.8°C 41% 6.0 mph ENE9.7 kmh ENE 11.0 mph17.7 kmh 30.48 in1032.2 mb 0.00 in0.0 mm 0.00 in0.0 mm 0.00 in0.0 mm
11:35 AM 69.1°F20.6°C 42.4°F5.8°C 38% 8.0 mph ENE12.9 kmh ENE 13.0 mph20.9 kmh 30.48 in1032.2 mb 0.00 in0.0 mm 0.00 in0.0 mm 0.00 in0.0 mm
11:40 AM 69.8°F21.0°C 43.7°F6.5°C 39% 6.0 mph ENE9.7 kmh ENE 12.0 mph19.3 kmh 30.48 in1032.2 mb 0.00 in0.0 mm 0.00 in0.0 mm 0.00 in0.0 mm
11:45 AM 69.5°F20.8°C 42.1°F5.6°C 37% 9.0 mph ENE14.5 kmh ENE 13.0 mph20.9 kmh 30.48 in1032.2 mb 0.00 in0.0 mm 0.00 in0.0 mm 0.00 in0.0 mm
11:50 AM 69.5°F20.8°C 42.1°F5.6°C 37% 8.0 mph ENE12.9 kmh ENE 13.0 mph20.9 kmh 30.48 in1032.2 mb 0.00 in0.0 mm 0.00 in0.0 mm 0.00 in0.0 mm
11:55 AM 70.1°F21.2°C 40.4°F4.7°C 34% 11.0 mph ENE17.7 kmh ENE 16.0 mph25.7 kmh 30.48 in1032.2 mb 0.00 in0.0 mm 0.00 in0.0 mm 0.00 in0.0 mm
12:00 PM 70.0°F21.1°C 39.6°F4.2°C 33% 6.0 mph E9.7 kmh E 13.0 mph20.9 kmh 30.48 in1032.2 mb 0.00 in0.0 mm 0.00 in0.0 mm 0.00 in0.0 mm
12:05 PM 70.1°F21.2°C 39.7°F4.3°C 33% 5.0 mph ESE8.0 kmh ESE 9.0 mph14.5 kmh 30.48 in1032.2 mb 0.00 in0.0 mm 0.00 in0.0 mm 0.00 in0.0 mm
12:10 PM 70.7°F21.5°C 40.2°F4.6°C 33% 6.0 mph E9.7 kmh E 12.0 mph19.3 kmh 30.48 in1032.2 mb 0.00 in0.0 mm 0.00 in0.0 mm 0.00 in0.0 mm
12:15 PM 70.3°F21.3°C 39.8°F4.3°C 33% 8.0 mph ENE12.9 kmh ENE 12.0 mph19.3 kmh 30.48 in1032.2 mb 0.00 in0.0 mm 0.00 in0.0 mm 0.00 in0.0 mm
12:20 PM 70.7°F21.5°C 39.4°F4.1°C 32% 6.0 mph E9.7 kmh E 13.0 mph20.9 kmh 30.48 in1032.2 mb 0.00 in0.0 mm 0.00 in0.0 mm 0.00 in0.0 mm
12:25 PM 70.7°F21.5°C 39.4°F4.1°C 32% 8.0 mph ENE12.9 kmh ENE 14.0 mph22.5 kmh 30.48 in1032.2 mb 0.00 in0.0 mm 0.00 in0.0 mm 0.00 in0.0 mm
12:30 PM 70.9°F21.6°C 38.7°F3.7°C 31% 8.0 mph ESE12.9 kmh ESE 15.0 mph24.1 kmh 30.48 in1032.2 mb 0.00 in0.0 mm 0.00 in0.0 mm 0.00 in0.0 mm
12:35 PM 71.0°F21.7°C 40.4°F4.7°C 33% 4.0 mph SE6.4 kmh SE 10.0 mph16.1 kmh 30.47 in1031.8 mb 0.00 in0.0 mm 0.00 in0.0 mm 0.00 in0.0 mm
12:40 PM 71.1°F21.7°C 40.5°F4.7°C 33% 7.0 mph SE11.3 kmh SE 14.0 mph22.5 kmh 30.47 in1031.8 mb 0.00 in0.0 mm 0.00 in0.0 mm 0.00 in0.0 mm
12:45 PM 71.3°F21.8°C 39.1°F3.9°C 31% 6.0 mph ESE9.7 kmh ESE 15.0 mph24.1 kmh 30.47 in1031.8 mb 0.00 in0.0 mm 0.00 in0.0 mm 0.00 in0.0 mm
12:50 PM 70.7°F21.5°C 38.6°F3.7°C 31% 8.0 mph ENE12.9 kmh ENE 13.0 mph20.9 kmh 30.47 in1031.8 mb 0.00 in0.0 mm 0.00 in0.0 mm 0.00 in0.0 mm
12:55 PM 70.9°F21.6°C 39.6°F4.2°C 32% 10.0 mph ENE16.1 kmh ENE 16.0 mph25.7 kmh 30.47 in1031.8 mb 0.00 in0.0 mm 0.00 in0.0 mm 0.00 in0.0 mm
01:00 PM 70.8°F21.6°C 38.7°F3.7°C 31% 8.0 mph E12.9 kmh E 13.0 mph20.9 kmh 30.47 in1031.8 mb 0.00 in0.0 mm 0.00 in0.0 mm 0.00 in0.0 mm
01:05 PM 71.0°F21.7°C 38.0°F3.3°C 30% 8.0 mph ENE12.9 kmh ENE 15.0 mph24.1 kmh 30.47 in1031.8 mb 0.00 in0.0 mm 0.00 in0.0 mm 0.00 in0.0 mm
01:10 PM 70.9°F21.6°C 37.9°F3.3°C 30% 8.0 mph E12.9 kmh E 14.0 mph22.5 kmh 30.47 in1031.8 mb 0.00 in0.0 mm 0.00 in0.0 mm 0.00 in0.0 mm
01:15 PM 71.0°F21.7°C 39.6°F4.2°C 32% 9.0 mph ENE14.5 kmh ENE 14.0 mph22.5 kmh 30.47 in1031.8 mb 0.00 in0.0 mm 0.00 in0.0 mm 0.00 in0.0 mm
01:20 PM 70.7°F21.5°C 37.7°F3.2°C 30% 8.0 mph E12.9 kmh E 15.0 mph24.1 kmh 30.47 in1031.8 mb 0.00 in0.0 mm 0.00 in0.0 mm 0.00 in0.0 mm
01:25 PM 70.9°F21.6°C 38.7°F3.7°C 31% 9.0 mph ENE14.5 kmh ENE 19.0 mph30.6 kmh 30.46 in1031.5 mb 0.00 in0.0 mm 0.00 in0.0 mm 0.00 in0.0 mm
01:30 PM 71.2°F21.8°C 39.0°F3.9°C 31% 8.0 mph E12.9 kmh E 12.0 mph19.3 kmh 30.46 in1031.5 mb 0.00 in0.0 mm 0.00 in0.0 mm 0.00 in0.0 mm
01:35 PM 71.4°F21.9°C 39.2°F4.0°C 31% 7.0 mph ENE11.3 kmh ENE 14.0 mph22.5 kmh 30.46 in1031.5 mb 0.00 in0.0 mm 0.00 in0.0 mm 0.00 in0.0 mm
01:40 PM 71.2°F21.8°C 39.8°F4.3°C 32% 11.0 mph ENE17.7 kmh ENE 17.0 mph27.4 kmh 30.46 in1031.5 mb 0.00 in0.0 mm 0.00 in0.0 mm 0.00 in0.0 mm
01:45 PM 70.9°F21.6°C 37.9°F3.3°C 30% 9.0 mph E14.5 kmh E 15.0 mph24.1 kmh 30.46 in1031.5 mb 0.00 in0.0 mm 0.00 in0.0 mm 0.00 in0.0 mm
01:50 PM 71.6°F22.0°C 41.7°F5.4°C 34% 6.0 mph NE9.7 kmh NE 11.0 mph17.7 kmh 30.46 in1031.5 mb 0.00 in0.0 mm 0.00 in0.0 mm 0.00 in0.0 mm
01:55 PM 71.5°F21.9°C 39.3°F4.1°C 31% 6.0 mph ENE9.7 kmh ENE 11.0 mph17.7 kmh 30.46 in1031.5 mb 0.00 in0.0 mm 0.00 in0.0 mm 0.00 in0.0 mm
02:00 PM 71.6°F22.0°C 41.7°F5.4°C 34% 5.0 mph ENE8.0 kmh ENE 12.0 mph19.3 kmh 30.46 in1031.5 mb 0.00 in0.0 mm 0.00 in0.0 mm 0.00 in0.0 mm
02:05 PM 71.6°F22.0°C 39.4°F4.1°C 31% 8.0 mph ENE12.9 kmh ENE 14.0 mph22.5 kmh 30.46 in1031.5 mb 0.00 in0.0 mm 0.00 in0.0 mm 0.00 in0.0 mm
02:10 PM 71.3°F21.8°C 39.9°F4.4°C 32% 6.0 mph ENE9.7 kmh ENE 11.0 mph17.7 kmh 30.46 in1031.5 mb 0.00 in0.0 mm 0.00 in0.0 mm 0.00 in0.0 mm
02:15 PM 72.0°F22.2°C 38.9°F3.8°C 30% 4.0 mph E6.4 kmh E 8.0 mph12.9 kmh 30.45 in1031.2 mb 0.00 in0.0 mm 0.00 in0.0 mm 0.00 in0.0 mm
02:20 PM 71.2°F21.8°C 39.8°F4.3°C 32% 7.0 mph E11.3 kmh E 12.0 mph19.3 kmh 30.45 in1031.2 mb 0.00 in0.0 mm 0.00 in0.0 mm 0.00 in0.0 mm
02:25 PM 71.4°F21.9°C 41.6°F5.3°C 34% 7.0 mph E11.3 kmh E 12.0 mph19.3 kmh 30.45 in1031.2 mb 0.00 in0.0 mm 0.00 in0.0 mm 0.00 in0.0 mm
02:30 PM 71.2°F21.8°C 40.6°F4.8°C 33% 8.0 mph NE12.9 kmh NE 13.0 mph20.9 kmh 30.45 in1031.2 mb 0.00 in0.0 mm 0.00 in0.0 mm 0.00 in0.0 mm
02:35 PM 71.1°F21.7°C 41.3°F5.2°C 34% 8.0 mph ENE12.9 kmh ENE 12.0 mph19.3 kmh 30.45 in1031.2 mb 0.00 in0.0 mm 0.00 in0.0 mm 0.00 in0.0 mm
02:40 PM 70.9°F21.6°C 40.4°F4.7°C 33% 6.0 mph ENE9.7 kmh ENE 12.0 mph19.3 kmh 30.45 in1031.2 mb 0.00 in0.0 mm 0.00 in0.0 mm 0.00 in0.0 mm
02:45 PM 71.6°F22.0°C 41.0°F5.0°C 33% 6.0 mph NE9.7 kmh NE 12.0 mph19.3 kmh 30.45 in1031.2 mb 0.00 in0.0 mm 0.00 in0.0 mm 0.00 in0.0 mm
02:50 PM 71.5°F21.9°C 42.4°F5.8°C 35% 8.0 mph NE12.9 kmh NE 15.0 mph24.1 kmh 30.45 in1031.2 mb 0.00 in0.0 mm 0.00 in0.0 mm 0.00 in0.0 mm
02:55 PM 70.9°F21.6°C 41.1°F5.1°C 34% 9.0 mph ENE14.5 kmh ENE 15.0 mph24.1 kmh 30.45 in1031.2 mb 0.00 in0.0 mm 0.00 in0.0 mm 0.00 in0.0 mm
03:00 PM 71.1°F21.7°C 41.3°F5.2°C 34% 7.0 mph ENE11.3 kmh ENE 12.0 mph19.3 kmh 30.45 in1031.2 mb 0.00 in0.0 mm 0.00 in0.0 mm 0.00 in0.0 mm
03:05 PM 70.6°F21.4°C 40.9°F4.9°C 34% 8.0 mph ENE12.9 kmh ENE 12.0 mph19.3 kmh 30.45 in1031.2 mb 0.00 in0.0 mm 0.00 in0.0 mm 0.00 in0.0 mm
03:10 PM 70.9°F21.6°C 41.1°F5.1°C 34% 6.0 mph ENE9.7 kmh ENE 13.0 mph20.9 kmh 30.44 in1030.8 mb 0.00 in0.0 mm 0.00 in0.0 mm 0.00 in0.0 mm
03:15 PM 71.0°F21.7°C 40.4°F4.7°C 33% 3.0 mph E4.8 kmh E 10.0 mph16.1 kmh 30.44 in1030.8 mb 0.00 in0.0 mm 0.00 in0.0 mm 0.00 in0.0 mm
03:20 PM 70.9°F21.6°C 39.6°F4.2°C 32% 8.0 mph ENE12.9 kmh ENE 16.0 mph25.7 kmh 30.44 in1030.8 mb 0.00 in0.0 mm 0.00 in0.0 mm 0.00 in0.0 mm
03:25 PM 70.7°F21.5°C 39.4°F4.1°C 32% 7.0 mph ENE11.3 kmh ENE 12.0 mph19.3 kmh 30.44 in1030.8 mb 0.00 in0.0 mm 0.00 in0.0 mm 0.00 in0.0 mm
03:30 PM 70.7°F21.5°C 38.6°F3.7°C 31% 8.0 mph ENE12.9 kmh ENE 14.0 mph22.5 kmh 30.44 in1030.8 mb 0.00 in0.0 mm 0.00 in0.0 mm 0.00 in0.0 mm
03:35 PM 70.6°F21.4°C 41.6°F5.3°C 35% 5.0 mph ENE8.0 kmh ENE 11.0 mph17.7 kmh 30.44 in1030.8 mb 0.00 in0.0 mm 0.00 in0.0 mm 0.00 in0.0 mm
03:40 PM 70.6°F21.4°C 38.5°F3.6°C 31% 7.0 mph E11.3 kmh E 15.0 mph24.1 kmh 30.44 in1030.8 mb 0.00 in0.0 mm 0.00 in0.0 mm 0.00 in0.0 mm
03:45 PM 70.6°F21.4°C 38.5°F3.6°C 31% 7.0 mph ENE11.3 kmh ENE 13.0 mph20.9 kmh 30.44 in1030.8 mb 0.00 in0.0 mm 0.00 in0.0 mm 0.00 in0.0 mm
03:50 PM 70.6°F21.4°C 38.5°F3.6°C 31% 7.0 mph ENE11.3 kmh ENE 12.0 mph19.3 kmh 30.43 in1030.5 mb 0.00 in0.0 mm 0.00 in0.0 mm 0.00 in0.0 mm
03:55 PM 70.6°F21.4°C 36.8°F2.7°C 29% 6.0 mph E9.7 kmh E 10.0 mph16.1 kmh 30.43 in1030.5 mb 0.00 in0.0 mm 0.00 in0.0 mm 0.00 in0.0 mm
04:00 PM 70.5°F21.4°C 38.4°F3.6°C 31% 7.0 mph ESE11.3 kmh ESE 12.0 mph19.3 kmh 30.43 in1030.5 mb 0.00 in0.0 mm 0.00 in0.0 mm 0.00 in0.0 mm
04:05 PM 70.4°F21.3°C 38.3°F3.5°C 31% 6.0 mph ENE9.7 kmh ENE 9.0 mph14.5 kmh 30.43 in1030.5 mb 0.00 in0.0 mm 0.00 in0.0 mm 0.00 in0.0 mm
04:10 PM 70.5°F21.4°C 39.2°F4.0°C 32% 5.0 mph ENE8.0 kmh ENE 13.0 mph20.9 kmh 30.43 in1030.5 mb 0.00 in0.0 mm 0.00 in0.0 mm 0.00 in0.0 mm
04:15 PM 70.4°F21.3°C 37.5°F3.1°C 30% 8.0 mph ENE12.9 kmh ENE 15.0 mph24.1 kmh 30.43 in1030.5 mb 0.00 in0.0 mm 0.00 in0.0 mm 0.00 in0.0 mm
04:20 PM 70.2°F21.2°C 38.1°F3.4°C 31% 6.0 mph E9.7 kmh E 11.0 mph17.7 kmh 30.43 in1030.5 mb 0.00 in0.0 mm 0.00 in0.0 mm 0.00 in0.0 mm
04:25 PM 70.2°F21.2°C 38.1°F3.4°C 31% 7.0 mph ENE11.3 kmh ENE 14.0 mph22.5 kmh 30.43 in1030.5 mb 0.00 in0.0 mm 0.00 in0.0 mm 0.00 in0.0 mm
04:30 PM 70.0°F21.1°C 38.8°F3.8°C 32% 8.0 mph E12.9 kmh E 14.0 mph22.5 kmh 30.43 in1030.5 mb 0.00 in0.0 mm 0.00 in0.0 mm 0.00 in0.0 mm
04:35 PM 70.2°F21.2°C 38.1°F3.4°C 31% 6.0 mph ENE9.7 kmh ENE 12.0 mph19.3 kmh 30.43 in1030.5 mb 0.00 in0.0 mm 0.00 in0.0 mm 0.00 in0.0 mm
04:40 PM 69.3°F20.7°C 41.9°F5.5°C 37% 9.0 mph ENE14.5 kmh ENE 14.0 mph22.5 kmh 30.43 in1030.5 mb 0.00 in0.0 mm 0.00 in0.0 mm 0.00 in0.0 mm
04:45 PM 68.9°F20.5°C 42.9°F6.1°C 39% 8.0 mph ENE12.9 kmh ENE 14.0 mph22.5 kmh 30.43 in1030.5 mb 0.00 in0.0 mm 0.00 in0.0 mm 0.00 in0.0 mm
04:50 PM 68.6°F20.3°C 43.3°F6.3°C 40% 9.0 mph ENE14.5 kmh ENE 15.0 mph24.1 kmh 30.43 in1030.5 mb 0.00 in0.0 mm 0.00 in0.0 mm 0.00 in0.0 mm
04:55 PM 68.1°F20.1°C 43.5°F6.4°C 41% 10.0 mph ENE16.1 kmh ENE 17.0 mph27.4 kmh 30.43 in1030.5 mb 0.00 in0.0 mm 0.00 in0.0 mm 0.00 in0.0 mm
05:00 PM 67.9°F19.9°C 44.0°F6.7°C 42% 11.0 mph ENE17.7 kmh ENE 17.0 mph27.4 kmh 30.43 in1030.5 mb 0.00 in0.0 mm 0.00 in0.0 mm 0.00 in0.0 mm
05:05 PM 67.6°F19.8°C 44.3°F6.8°C 43% 11.0 mph ENE17.7 kmh ENE 20.0 mph32.2 kmh 30.43 in1030.5 mb 0.00 in0.0 mm 0.00 in0.0 mm 0.00 in0.0 mm
05:10 PM 67.2°F19.6°C 43.3°F6.3°C 42% 12.0 mph ENE19.3 kmh ENE 17.0 mph27.4 kmh 30.43 in1030.5 mb 0.00 in0.0 mm 0.00 in0.0 mm 0.00 in0.0 mm
05:15 PM 67.0°F19.4°C 43.8°F6.6°C 43% 10.0 mph ENE16.1 kmh ENE 17.0 mph27.4 kmh 30.43 in1030.5 mb 0.00 in0.0 mm 0.00 in0.0 mm 0.00 in0.0 mm
05:20 PM 66.8°F19.3°C 42.3°F5.7°C 41% 9.0 mph ENE14.5 kmh ENE 20.0 mph32.2 kmh 30.43 in1030.5 mb 0.00 in0.0 mm 0.00 in0.0 mm 0.00 in0.0 mm
05:25 PM 66.6°F19.2°C 42.2°F5.7°C 41% 11.0 mph ENE17.7 kmh ENE 18.0 mph29.0 kmh 30.43 in1030.5 mb 0.00 in0.0 mm 0.00 in0.0 mm 0.00 in0.0 mm
05:30 PM 66.4°F19.1°C 41.3°F5.2°C 40% 10.0 mph ENE16.1 kmh ENE 17.0 mph27.4 kmh 30.43 in1030.5 mb 0.00 in0.0 mm 0.00 in0.0 mm 0.00 in0.0 mm
05:35 PM 66.2°F19.0°C 42.4°F5.8°C 42% 8.0 mph ENE12.9 kmh ENE 13.0 mph20.9 kmh 30.43 in1030.5 mb 0.00 in0.0 mm 0.00 in0.0 mm 0.00 in0.0 mm
05:40 PM 65.9°F18.8°C 41.5°F5.3°C 41% 9.0 mph ENE14.5 kmh ENE 15.0 mph24.1 kmh 30.43 in1030.5 mb 0.00 in0.0 mm 0.00 in0.0 mm 0.00 in0.0 mm
05:45 PM 65.6°F18.7°C 41.3°F5.2°C 41% 9.0 mph ENE14.5 kmh ENE 16.0 mph25.7 kmh 30.43 in1030.5 mb 0.00 in0.0 mm 0.00 in0.0 mm 0.00 in0.0 mm
05:50 PM 65.4°F18.6°C 41.1°F5.1°C 41% 8.0 mph ENE12.9 kmh ENE 16.0 mph25.7 kmh 30.43 in1030.5 mb 0.00 in0.0 mm 0.00 in0.0 mm 0.00 in0.0 mm
05:55 PM 65.3°F18.5°C 41.0°F5.0°C 41% 9.0 mph ENE14.5 kmh ENE 15.0 mph24.1 kmh 30.43 in1030.5 mb 0.00 in0.0 mm 0.00 in0.0 mm 0.00 in0.0 mm
06:00 PM 65.1°F18.4°C 40.2°F4.6°C 40% 10.0 mph ENE16.1 kmh ENE 19.0 mph30.6 kmh 30.43 in1030.5 mb 0.00 in0.0 mm 0.00 in0.0 mm 0.00 in0.0 mm
06:05 PM 64.9°F18.3°C 40.6°F4.8°C 41% 8.0 mph ENE12.9 kmh ENE 15.0 mph24.1 kmh 30.43 in1030.5 mb 0.00 in0.0 mm 0.00 in0.0 mm 0.00 in0.0 mm
06:10 PM 64.6°F18.1°C 41.0°F5.0°C 42% 8.0 mph ENE12.9 kmh ENE 12.0 mph19.3 kmh 30.43 in1030.5 mb 0.00 in0.0 mm 0.00 in0.0 mm 0.00 in0.0 mm
06:15 PM 64.4°F18.0°C 40.8°F4.9°C 42% 9.0 mph ENE14.5 kmh ENE 14.0 mph22.5 kmh 30.43 in1030.5 mb 0.00 in0.0 mm 0.00 in0.0 mm 0.00 in0.0 mm
06:20 PM 64.1°F17.8°C 41.1°F5.1°C 43% 7.0 mph ENE11.3 kmh ENE 14.0 mph22.5 kmh 30.43 in1030.5 mb 0.00 in0.0 mm 0.00 in0.0 mm 0.00 in0.0 mm
06:25 PM 63.7°F17.6°C 40.8°F4.9°C 43% 8.0 mph ENE12.9 kmh ENE 14.0 mph22.5 kmh 30.43 in1030.5 mb 0.00 in0.0 mm 0.00 in0.0 mm 0.00 in0.0 mm
06:30 PM 63.2°F17.3°C 40.9°F4.9°C 44% 6.0 mph ENE9.7 kmh ENE 14.0 mph22.5 kmh 30.43 in1030.5 mb 0.00 in0.0 mm 0.00 in0.0 mm 0.00 in0.0 mm
06:35 PM 62.8°F17.1°C 41.7°F5.4°C 46% 6.0 mph ENE9.7 kmh ENE 13.0 mph20.9 kmh 30.44 in1030.8 mb 0.00 in0.0 mm 0.00 in0.0 mm 0.00 in0.0 mm
06:40 PM 62.4°F16.9°C 41.3°F5.2°C 46% 4.0 mph NE6.4 kmh NE 10.0 mph16.1 kmh 30.44 in1030.8 mb 0.00 in0.0 mm 0.00 in0.0 mm 0.00 in0.0 mm
06:45 PM 62.3°F16.8°C 41.3°F5.2°C 46% 7.0 mph NE11.3 kmh NE 14.0 mph22.5 kmh 30.44 in1030.8 mb 0.00 in0.0 mm 0.00 in0.0 mm 0.00 in0.0 mm
06:50 PM 62.0°F16.7°C 40.4°F4.7°C 45% 6.0 mph ENE9.7 kmh ENE 11.0 mph17.7 kmh 30.44 in1030.8 mb 0.00 in0.0 mm 0.00 in0.0 mm 0.00 in0.0 mm
06:55 PM 61.6°F16.4°C 40.1°F4.5°C 45% 6.0 mph ENE9.7 kmh ENE 10.0 mph16.1 kmh 30.44 in1030.8 mb 0.00 in0.0 mm 0.00 in0.0 mm 0.00 in0.0 mm
07:00 PM 61.2°F16.2°C 40.3°F4.6°C 46% 5.0 mph ENE8.0 kmh ENE 11.0 mph17.7 kmh 30.44 in1030.8 mb 0.00 in0.0 mm 0.00 in0.0 mm 0.00 in0.0 mm
07:05 PM 60.9°F16.1°C 40.0°F4.4°C 46% 6.0 mph ENE9.7 kmh ENE 13.0 mph20.9 kmh 30.44 in1030.8 mb 0.00 in0.0 mm 0.00 in0.0 mm 0.00 in0.0 mm
07:10 PM 60.6°F15.9°C 39.1°F3.9°C 45% 6.0 mph ENE9.7 kmh ENE 12.0 mph19.3 kmh 30.45 in1031.2 mb 0.00 in0.0 mm 0.00 in0.0 mm 0.00 in0.0 mm
07:15 PM 60.3°F15.7°C 38.9°F3.8°C 45% 5.0 mph ENE8.0 kmh ENE 11.0 mph17.7 kmh 30.45 in1031.2 mb 0.00 in0.0 mm 0.00 in0.0 mm 0.00 in0.0 mm
07:20 PM 59.8°F15.4°C 38.4°F3.6°C 45% 5.0 mph ENE8.0 kmh ENE 11.0 mph17.7 kmh 30.45 in1031.2 mb 0.00 in0.0 mm 0.00 in0.0 mm 0.00 in0.0 mm
07:25 PM 59.4°F15.2°C 38.6°F3.7°C 46% 4.0 mph ENE6.4 kmh ENE 10.0 mph16.1 kmh 30.45 in1031.2 mb 0.00 in0.0 mm 0.00 in0.0 mm 0.00 in0.0 mm
07:30 PM 59.1°F15.1°C 38.3°F3.5°C 46% 5.0 mph ENE8.0 kmh ENE 10.0 mph16.1 kmh 30.45 in1031.2 mb 0.00 in0.0 mm 0.00 in0.0 mm 0.00 in0.0 mm
07:35 PM 58.9°F14.9°C 38.2°F3.4°C 46% 3.0 mph ENE4.8 kmh ENE 9.0 mph14.5 kmh 30.45 in1031.2 mb 0.00 in0.0 mm 0.00 in0.0 mm 0.00 in0.0 mm
07:40 PM 58.7°F14.8°C 38.5°F3.6°C 47% 3.0 mph NE4.8 kmh NE 10.0 mph16.1 kmh 30.46 in1031.5 mb 0.00 in0.0 mm 0.00 in0.0 mm 0.00 in0.0 mm
07:45 PM 58.6°F14.8°C 39.0°F3.9°C 48% 3.0 mph NE4.8 kmh NE 11.0 mph17.7 kmh 30.46 in1031.5 mb 0.00 in0.0 mm 0.00 in0.0 mm 0.00 in0.0 mm
07:50 PM 58.7°F14.8°C 38.0°F3.3°C 46% 5.0 mph ENE8.0 kmh ENE 10.0 mph16.1 kmh 30.46 in1031.5 mb 0.00 in0.0 mm 0.00 in0.0 mm 0.00 in0.0 mm
07:55 PM 58.4°F14.7°C 38.3°F3.5°C 47% 6.0 mph ENE9.7 kmh ENE 11.0 mph17.7 kmh 30.46 in1031.5 mb 0.00 in0.0 mm 0.00 in0.0 mm 0.00 in0.0 mm
08:00 PM 57.9°F14.4°C 37.8°F3.2°C 47% 4.0 mph ENE6.4 kmh ENE 9.0 mph14.5 kmh 30.46 in1031.5 mb 0.00 in0.0 mm 0.00 in0.0 mm 0.00 in0.0 mm
08:05 PM 57.5°F14.2°C 37.4°F3.0°C 47% 3.0 mph ENE4.8 kmh ENE 8.0 mph12.9 kmh 30.46 in1031.5 mb 0.00 in0.0 mm 0.00 in0.0 mm 0.00 in0.0 mm
08:10 PM 57.4°F14.1°C 37.9°F3.3°C 48% 4.0 mph NE6.4 kmh NE 9.0 mph14.5 kmh 30.46 in1031.5 mb 0.00 in0.0 mm 0.00 in0.0 mm 0.00 in0.0 mm
08:15 PM 56.7°F13.7°C 37.8°F3.2°C 49% 3.0 mph NE4.8 kmh NE 9.0 mph14.5 kmh 30.46 in1031.5 mb 0.00 in0.0 mm 0.00 in0.0 mm 0.00 in0.0 mm
08:20 PM 55.8°F13.2°C 37.4°F3.0°C 50% 2.0 mph ENE3.2 kmh ENE 9.0 mph14.5 kmh 30.46 in1031.5 mb 0.00 in0.0 mm 0.00 in0.0 mm 0.00 in0.0 mm
08:25 PM 55.8°F13.2°C 37.4°F3.0°C 50% 3.0 mph ENE4.8 kmh ENE 9.0 mph14.5 kmh 30.46 in1031.5 mb 0.00 in0.0 mm 0.00 in0.0 mm 0.00 in0.0 mm
08:30 PM 55.1°F12.8°C 37.3°F2.9°C 51% 2.0 mph NE3.2 kmh NE 6.0 mph9.7 kmh 30.46 in1031.5 mb 0.00 in0.0 mm 0.00 in0.0 mm 0.00 in0.0 mm
08:35 PM 54.0°F12.2°C 37.3°F2.9°C 53% 3.0 mph NE4.8 kmh NE 6.0 mph9.7 kmh 30.46 in1031.5 mb 0.00 in0.0 mm 0.00 in0.0 mm 0.00 in0.0 mm
08:40 PM 53.9°F12.2°C 37.2°F2.9°C 53% 3.0 mph NE4.8 kmh NE 7.0 mph11.3 kmh 30.47 in1031.8 mb 0.00 in0.0 mm 0.00 in0.0 mm 0.00 in0.0 mm
08:45 PM 53.7°F12.1°C 37.0°F2.8°C 53% 2.0 mph NE3.2 kmh NE 6.0 mph9.7 kmh 30.47 in1031.8 mb 0.00 in0.0 mm 0.00 in0.0 mm 0.00 in0.0 mm
08:50 PM 53.2°F11.8°C 37.0°F2.8°C 54% 2.0 mph NE3.2 kmh NE 6.0 mph9.7 kmh 30.47 in1031.8 mb 0.00 in0.0 mm 0.00 in0.0 mm 0.00 in0.0 mm
08:55 PM 52.7°F11.5°C 37.0°F2.8°C 55% 3.0 mph NE4.8 kmh NE 7.0 mph11.3 kmh 30.47 in1031.8 mb 0.00 in0.0 mm 0.00 in0.0 mm 0.00 in0.0 mm
09:00 PM 52.5°F11.4°C 37.3°F2.9°C 56% 1.0 mph ENE1.6 kmh ENE 5.0 mph8.0 kmh 30.47 in1031.8 mb 0.00 in0.0 mm 0.00 in0.0 mm 0.00 in0.0 mm
09:05 PM 52.5°F11.4°C 37.7°F3.2°C 57% 1.0 mph NE1.6 kmh NE 4.0 mph6.4 kmh 30.47 in1031.8 mb 0.00 in0.0 mm 0.00 in0.0 mm 0.00 in0.0 mm
09:10 PM 51.9°F11.1°C 36.7°F2.6°C 56% 1.0 mph NE1.6 kmh NE 4.0 mph6.4 kmh 30.47 in1031.8 mb 0.00 in0.0 mm 0.00 in0.0 mm 0.00 in0.0 mm
09:15 PM 50.5°F10.3°C 36.3°F2.4°C 58% 2.0 mph NE3.2 kmh NE 5.0 mph8.0 kmh 30.47 in1031.8 mb 0.00 in0.0 mm 0.00 in0.0 mm 0.00 in0.0 mm
09:20 PM 49.6°F9.8°C 36.7°F2.6°C 61% 2.0 mph NE3.2 kmh NE 5.0 mph8.0 kmh 30.47 in1031.8 mb 0.00 in0.0 mm 0.00 in0.0 mm 0.00 in0.0 mm
09:25 PM 49.0°F9.4°C 36.6°F2.6°C 62% 2.0 mph NE3.2 kmh NE 4.0 mph6.4 kmh 30.47 in1031.8 mb 0.00 in0.0 mm 0.00 in0.0 mm 0.00 in0.0 mm
09:30 PM 49.2°F9.6°C 36.3°F2.4°C 61% 3.0 mph NE4.8 kmh NE 5.0 mph8.0 kmh 30.47 in1031.8 mb 0.00 in0.0 mm 0.00 in0.0 mm 0.00 in0.0 mm
09:35 PM 49.1°F9.5°C 36.2°F2.3°C 61% 2.0 mph NE3.2 kmh NE 5.0 mph8.0 kmh 30.47 in1031.8 mb 0.00 in0.0 mm 0.00 in0.0 mm 0.00 in0.0 mm
09:40 PM 48.9°F9.4°C 36.0°F2.2°C 61% 2.0 mph NE3.2 kmh NE 5.0 mph8.0 kmh 30.47 in1031.8 mb 0.00 in0.0 mm 0.00 in0.0 mm 0.00 in0.0 mm
09:45 PM 48.4°F9.1°C 36.0°F2.2°C 62% 1.0 mph NE1.6 kmh NE 3.0 mph4.8 kmh 30.47 in1031.8 mb 0.00 in0.0 mm 0.00 in0.0 mm 0.00 in0.0 mm
09:50 PM 48.1°F8.9°C 36.1°F2.3°C 63% 2.0 mph NE3.2 kmh NE 5.0 mph8.0 kmh 30.47 in1031.8 mb 0.00 in0.0 mm 0.00 in0.0 mm 0.00 in0.0 mm
09:55 PM 48.0°F8.9°C 36.4°F2.4°C 64% 1.0 mph NE1.6 kmh NE 5.0 mph8.0 kmh 30.47 in1031.8 mb 0.00 in0.0 mm 0.00 in0.0 mm 0.00 in0.0 mm
10:00 PM 47.6°F8.7°C 36.0°F2.2°C 64% 1.0 mph NE1.6 kmh NE 4.0 mph6.4 kmh 30.47 in1031.8 mb 0.00 in0.0 mm 0.00 in0.0 mm 0.00 in0.0 mm
10:05 PM 47.1°F8.4°C 35.9°F2.2°C 65% 2.0 mph NE3.2 kmh NE 4.0 mph6.4 kmh 30.47 in1031.8 mb 0.00 in0.0 mm 0.00 in0.0 mm 0.00 in0.0 mm
10:10 PM 47.1°F8.4°C 36.3°F2.4°C 66% 2.0 mph NE3.2 kmh NE 6.0 mph9.7 kmh 30.47 in1031.8 mb 0.00 in0.0 mm 0.00 in0.0 mm 0.00 in0.0 mm
10:15 PM 47.7°F8.7°C 36.5°F2.5°C 65% 1.0 mph NE1.6 kmh NE 5.0 mph8.0 kmh 30.47 in1031.8 mb 0.00 in0.0 mm 0.00 in0.0 mm 0.00 in0.0 mm
10:20 PM 47.2°F8.4°C 36.0°F2.2°C 65% Calm Calm 4.0 mph6.4 kmh 30.47 in1031.8 mb 0.00 in0.0 mm 0.00 in0.0 mm 0.00 in0.0 mm
10:25 PM 46.5°F8.1°C 36.1°F2.3°C 67% 1.0 mph NE1.6 kmh NE 4.0 mph6.4 kmh 30.47 in1031.8 mb 0.00 in0.0 mm 0.00 in0.0 mm 0.00 in0.0 mm
10:30 PM 46.4°F8.0°C 36.0°F2.2°C 67% 1.0 mph NE1.6 kmh NE 4.0 mph6.4 kmh 30.47 in1031.8 mb 0.00 in0.0 mm 0.00 in0.0 mm 0.00 in0.0 mm
10:35 PM 45.5°F7.5°C 35.9°F2.2°C 69% 1.0 mph NE1.6 kmh NE 4.0 mph6.4 kmh 30.47 in1031.8 mb 0.00 in0.0 mm 0.00 in0.0 mm 0.00 in0.0 mm
10:40 PM 46.0°F7.8°C 36.0°F2.2°C 68% 1.0 mph NE1.6 kmh NE 4.0 mph6.4 kmh 30.47 in1031.8 mb 0.00 in0.0 mm 0.00 in0.0 mm 0.00 in0.0 mm
10:45 PM 45.3°F7.4°C 35.7°F2.1°C 69% Calm Calm 3.0 mph4.8 kmh 30.47 in1031.8 mb 0.00 in0.0 mm 0.00 in0.0 mm 0.00 in0.0 mm
10:50 PM 46.2°F7.9°C 36.2°F2.3°C 68% Calm Calm 2.0 mph3.2 kmh 30.47 in1031.8 mb 0.00 in0.0 mm 0.00 in0.0 mm 0.00 in0.0 mm
10:55 PM 46.4°F8.0°C 36.4°F2.4°C 68% Calm Calm 3.0 mph4.8 kmh 30.47 in1031.8 mb 0.00 in0.0 mm 0.00 in0.0 mm 0.00 in0.0 mm
11:00 PM 46.8°F8.2°C 36.4°F2.4°C 67% 1.0 mph NE1.6 kmh NE 5.0 mph8.0 kmh 30.47 in1031.8 mb 0.00 in0.0 mm 0.00 in0.0 mm 0.00 in0.0 mm
11:05 PM 46.8°F8.2°C 36.4°F2.4°C 67% 1.0 mph NE1.6 kmh NE 5.0 mph8.0 kmh 30.47 in1031.8 mb 0.00 in0.0 mm 0.00 in0.0 mm 0.00 in0.0 mm
11:10 PM 46.3°F7.9°C 36.0°F2.2°C 67% 1.0 mph NE1.6 kmh NE 4.0 mph6.4 kmh 30.47 in1031.8 mb 0.00 in0.0 mm 0.00 in0.0 mm 0.00 in0.0 mm
11:15 PM 45.6°F7.6°C 35.7°F2.1°C 68% Calm Calm -- 30.47 in1031.8 mb 0.00 in0.0 mm 0.00 in0.0 mm 0.00 in0.0 mm
11:20 PM 44.5°F6.9°C 35.3°F1.8°C 70% Calm Calm 2.0 mph3.2 kmh 30.47 in1031.8 mb 0.00 in0.0 mm 0.00 in0.0 mm 0.00 in0.0 mm
11:25 PM 43.6°F6.4°C 34.8°F1.6°C 71% Calm Calm 2.0 mph3.2 kmh 30.47 in1031.8 mb 0.00 in0.0 mm 0.00 in0.0 mm 0.00 in0.0 mm
11:30 PM 41.7°F5.4°C 34.0°F1.1°C 74% Calm Calm 2.0 mph3.2 kmh 30.47 in1031.8 mb 0.00 in0.0 mm 0.00 in0.0 mm 0.00 in0.0 mm
11:35 PM 41.1°F5.1°C 34.4°F1.3°C 77% Calm Calm 2.0 mph3.2 kmh 30.47 in1031.8 mb 0.00 in0.0 mm 0.00 in0.0 mm 0.00 in0.0 mm
11:40 PM 40.4°F4.7°C 34.1°F1.2°C 78% Calm Calm 2.0 mph3.2 kmh 30.47 in1031.8 mb 0.00 in0.0 mm 0.00 in0.0 mm 0.00 in0.0 mm
11:45 PM 39.9°F4.4°C 34.2°F1.2°C 80% Calm Calm 3.0 mph4.8 kmh 30.47 in1031.8 mb 0.00 in0.0 mm 0.00 in0.0 mm 0.00 in0.0 mm
11:50 PM 40.3°F4.6°C 34.6°F1.4°C 80% 1.0 mph NE1.6 kmh NE 4.0 mph6.4 kmh 30.47 in1031.8 mb 0.00 in0.0 mm 0.00 in0.0 mm 0.00 in0.0 mm
11:55 PM 41.4°F5.2°C 35.1°F1.7°C 78% 1.0 mph NE1.6 kmh NE 3.0 mph4.8 kmh 30.47 in1031.8 mb 0.00 in0.0 mm 0.00 in0.0 mm 0.00 in0.0 mm